Time;durP1;ratioP1;P1;durP2;ratioP2;P2;SDS_P1;SDS_P2;PMS_P1;PMS_P2;Temp;Humidity;BMP_temperature;BMP_pressure;BME280_temperature;BME280_humidity;BME280_pressure;Samples;Min_cycle;Max_cycle;Signal;HPM_P1;HPM_P2
2022/06/16 00:01:58;;;;;;;;;;;;;;;;;;4905551;29;20305;-84
2022/06/16 00:04:30;;;;;;;;;;;;;;;;;;4912384;29;21627;-84
2022/06/16 00:06:56;;;;;;;;;;;;;;;;;;4911257;29;19926;-84
2022/06/16 00:09:23;;;;;;;;;;;;;;;;;;4910508;29;20499;-84
2022/06/16 00:11:49;;;;;;;;;;;;;;;;;;4902073;29;19939;-84
2022/06/16 00:14:18;;;;;;;;;;;;;;;;;;4904205;29;19958;-84
2022/06/16 00:16:56;;;;;;;;;;;;;;;;;;4897066;29;20411;-84
2022/06/16 00:19:22;;;;;;;;;;;;;;;;;;4903697;29;19931;-85
2022/06/16 00:21:53;;;;;;;;;;;;;;;;;;4904139;29;19931;-84
2022/06/16 00:24:20;;;;;;;;;;;;;;;;;;4884511;29;20017;-84
2022/06/16 00:26:47;;;;;;;;;;;;;;;;;;4898311;29;20357;-84
2022/06/16 00:29:15;;;;;;;;;;;;;;;;;;4900229;29;23058;-85
2022/06/16 00:31:44;;;;;;;;;;;;;;;;;;4898184;28;19962;-84
2022/06/16 00:34:10;;;;;;;;;;;;;;;;;;4908647;29;22601;-84
2022/06/16 00:36:37;;;;;;;;;;;;;;;;;;4914727;29;19933;-84
2022/06/16 00:39:07;;;;;;;;;;;;;;;;;;4911208;29;19950;-85
2022/06/16 00:41:33;;;;;;;;;;;;;;;;;;4902964;29;19938;-84
2022/06/16 00:44:08;;;;;;;;;;;;;;;;;;4904721;29;19926;-84
2022/06/16 00:46:34;;;;;;;;;;;;;;;;;;4884953;29;20071;-84
2022/06/16 00:49:01;;;;;;;;;;;;;;;;;;4906456;29;20411;-84
2022/06/16 00:51:47;;;;;;;;;;;;;;;;;;4899015;29;20457;-85
2022/06/16 00:54:13;;;;;;;;;;;;;;;;;;4894069;29;20393;-84
2022/06/16 00:56:43;;;;;;;;;;;;;;;;;;4886282;29;20997;-84
2022/06/16 00:59:09;;;;;;;;;;;;;;;;;;4894555;29;19938;-85
2022/06/16 01:01:39;;;;;;;;;;;;;;;;;;4902759;29;20066;-85
2022/06/16 01:06:53;;;;;;;;;;;;;;;;;;4906324;29;20405;-85
2022/06/16 01:09:27;;;;;;;;;;;;;;;;;;4910049;29;19930;-84
2022/06/16 01:14:41;;;;;;;;;;;;;;;;;;4900252;29;20070;-85
2022/06/16 01:17:10;;;;;;;;;;;;;;;;;;4905212;29;19938;-84
2022/06/16 01:19:39;;;;;;;;;;;;;;;;;;4882947;29;19931;-85
2022/06/16 01:22:05;;;;;;;;;;;;;;;;;;4901660;29;19955;-84
2022/06/16 01:24:31;;;;;;;;;;;;;;;;;;4901649;28;19930;-84
2022/06/16 01:26:57;;;;;;;;;;;;;;;;;;4889196;29;19931;-84
2022/06/16 01:29:25;;;;;;;;;;;;;;;;;;4887428;29;19937;-84
2022/06/16 01:31:51;;;;;;;;;;;;;;;;;;4896863;29;20302;-84
2022/06/16 01:34:18;;;;;;;;;;;;;;;;;;4888444;29;19934;-84
2022/06/16 01:36:44;;;;;;;;;;;;;;;;;;4903136;28;19962;-84
2022/06/16 01:39:10;;;;;;;;;;;;;;;;;;4904690;29;21968;-84
2022/06/16 01:41:36;;;;;;;;;;;;;;;;;;4895632;29;19937;-84
2022/06/16 01:44:02;;;;;;;;;;;;;;;;;;4903397;29;19986;-84
2022/06/16 01:46:29;;;;;;;;;;;;;;;;;;4885965;29;19970;-85
2022/06/16 01:48:56;;;;;;;;;;;;;;;;;;4903294;29;22412;-84
2022/06/16 01:51:22;;;;;;;;;;;;;;;;;;4886531;29;20301;-84
2022/06/16 01:53:48;;;;;;;;;;;;;;;;;;4883254;29;24532;-84
2022/06/16 01:56:14;;;;;;;;;;;;;;;;;;4905740;29;20018;-84
2022/06/16 01:58:40;;;;;;;;;;;;;;;;;;4917537;28;20417;-84
2022/06/16 02:01:07;;;;;;;;;;;;;;;;;;4924669;28;19927;-84
2022/06/16 02:03:33;;;;;;;;;;;;;;;;;;4902303;29;19927;-84
2022/06/16 02:05:58;;;;;;;;;;;;;;;;;;4911988;29;19937;-84
2022/06/16 02:08:25;;;;;;;;;;;;;;;;;;4915251;29;19923;-84
2022/06/16 02:10:51;;;;;;;;;;;;;;;;;;4904036;29;20018;-84
2022/06/16 02:13:17;;;;;;;;;;;;;;;;;;4901359;29;19935;-84
2022/06/16 02:15:43;;;;;;;;;;;;;;;;;;4899354;29;20021;-84
2022/06/16 02:18:09;;;;;;;;;;;;;;;;;;4902803;29;20362;-84
2022/06/16 02:20:35;;;;;;;;;;;;;;;;;;4901808;29;21142;-84
2022/06/16 02:23:01;;;;;;;;;;;;;;;;;;4887585;29;19937;-84
2022/06/16 02:25:27;;;;;;;;;;;;;;;;;;4908332;29;19970;-84
2022/06/16 02:27:53;;;;;;;;;;;;;;;;;;4908448;29;19935;-84
2022/06/16 02:30:19;;;;;;;;;;;;;;;;;;4906550;29;20025;-84
2022/06/16 02:32:45;;;;;;;;;;;;;;;;;;4901215;29;19934;-84
2022/06/16 02:35:11;;;;;;;;;;;;;;;;;;4894980;29;19978;-84
2022/06/16 02:37:37;;;;;;;;;;;;;;;;;;4905626;29;19966;-84
2022/06/16 02:40:03;;;;;;;;;;;;;;;;;;4909066;29;19930;-84
2022/06/16 02:42:29;;;;;;;;;;;;;;;;;;4900550;28;19923;-84
2022/06/16 02:44:55;;;;;;;;;;;;;;;;;;4901207;29;21244;-84
2022/06/16 02:47:20;;;;;;;;;;;;;;;;;;4905944;29;19931;-84
2022/06/16 02:49:46;;;;;;;;;;;;;;;;;;4897418;29;19926;-84
2022/06/16 02:52:12;;;;;;;;;;;;;;;;;;4904397;29;19945;-84
2022/06/16 02:54:38;;;;;;;;;;;;;;;;;;4901612;29;19941;-84
2022/06/16 02:57:04;;;;;;;;;;;;;;;;;;4914893;28;19937;-84
2022/06/16 02:59:30;;;;;;;;;;;;;;;;;;4901510;29;19978;-83
2022/06/16 03:01:56;;;;;;;;;;;;;;;;;;4906256;29;19931;-84
2022/06/16 03:04:22;;;;;;;;;;;;;;;;;;4902424;29;20032;-84
2022/06/16 03:06:48;;;;;;;;;;;;;;;;;;4900589;29;21867;-84
2022/06/16 03:09:15;;;;;;;;;;;;;;;;;;4905733;28;19933;-84
2022/06/16 03:11:41;;;;;;;;;;;;;;;;;;4902794;29;19962;-84
2022/06/16 03:14:07;;;;;;;;;;;;;;;;;;4909743;29;20022;-84
2022/06/16 03:16:32;;;;;;;;;;;;;;;;;;4903638;29;19931;-84
2022/06/16 03:18:58;;;;;;;;;;;;;;;;;;4884960;29;19931;-84
2022/06/16 03:21:24;;;;;;;;;;;;;;;;;;4902516;29;20021;-84
2022/06/16 03:23:50;;;;;;;;;;;;;;;;;;4883338;29;19930;-84
2022/06/16 03:26:17;;;;;;;;;;;;;;;;;;4902357;29;19931;-84
2022/06/16 03:28:43;;;;;;;;;;;;;;;;;;4877959;29;19931;-84
2022/06/16 03:31:09;;;;;;;;;;;;;;;;;;4908511;29;19950;-84
2022/06/16 03:33:35;;;;;;;;;;;;;;;;;;4893440;29;20394;-84
2022/06/16 03:36:01;;;;;;;;;;;;;;;;;;4901786;29;19923;-84
2022/06/16 03:40:53;;;;;;;;;;;;;;;;;;4905818;29;20025;-84
2022/06/16 03:43:19;;;;;;;;;;;;;;;;;;4887703;29;19934;-84
2022/06/16 03:45:45;;;;;;;;;;;;;;;;;;4899275;29;19931;-84
2022/06/16 03:48:11;;;;;;;;;;;;;;;;;;4901354;29;19923;-84
2022/06/16 03:50:37;;;;;;;;;;;;;;;;;;4900903;29;19931;-84
2022/06/16 03:53:02;;;;;;;;;;;;;;;;;;4906750;29;19965;-84
2022/06/16 03:55:28;;;;;;;;;;;;;;;;;;4906660;28;20314;-84
2022/06/16 03:57:54;;;;;;;;;;;;;;;;;;4883346;29;20318;-84
2022/06/16 04:00:20;;;;;;;;;;;;;;;;;;4885426;29;20018;-84
2022/06/16 04:02:46;;;;;;;;;;;;;;;;;;4880706;29;20001;-84
2022/06/16 04:05:12;;;;;;;;;;;;;;;;;;4905803;29;20222;-84
2022/06/16 04:07:38;;;;;;;;;;;;;;;;;;4898018;29;19926;-85
2022/06/16 04:10:04;;;;;;;;;;;;;;;;;;4907391;29;19929;-84
2022/06/16 04:12:30;;;;;;;;;;;;;;;;;;4897851;29;19958;-84
2022/06/16 04:14:56;;;;;;;;;;;;;;;;;;4900511;28;19927;-84
2022/06/16 04:17:22;;;;;;;;;;;;;;;;;;4881692;29;19923;-84
2022/06/16 04:22:43;;;;;;;;;;;;;;;;;;4892810;29;19978;-84
2022/06/16 04:25:09;;;;;;;;;;;;;;;;;;4904733;29;20013;-84
2022/06/16 04:27:35;;;;;;;;;;;;;;;;;;4902994;29;19954;-84
2022/06/16 04:30:01;;;;;;;;;;;;;;;;;;4900301;29;19931;-84
2022/06/16 04:32:27;;;;;;;;;;;;;;;;;;4901664;29;19938;-84
2022/06/16 04:34:53;;;;;;;;;;;;;;;;;;4899556;28;20025;-85
2022/06/16 04:37:19;;;;;;;;;;;;;;;;;;4900041;29;19923;-84
2022/06/16 04:39:45;;;;;;;;;;;;;;;;;;4896120;29;21478;-84
2022/06/16 04:42:11;;;;;;;;;;;;;;;;;;4903354;29;20352;-84
2022/06/16 04:44:39;;;;;;;;;;;;;;;;;;4883874;29;20390;-85
2022/06/16 04:47:06;;;;;;;;;;;;;;;;;;4908649;29;19928;-84
2022/06/16 04:49:32;;;;;;;;;;;;;;;;;;4893315;29;19986;-84
2022/06/16 04:51:58;;;;;;;;;;;;;;;;;;4898052;29;19926;-84
2022/06/16 04:54:24;;;;;;;;;;;;;;;;;;4912375;29;19935;-84
2022/06/16 04:56:50;;;;;;;;;;;;;;;;;;4903777;29;19938;-85
2022/06/16 04:59:16;;;;;;;;;;;;;;;;;;4897304;29;19923;-85
2022/06/16 05:01:42;;;;;;;;;;;;;;;;;;4878694;29;20875;-84
2022/06/16 05:04:08;;;;;;;;;;;;;;;;;;4902973;29;19927;-85
2022/06/16 05:06:33;;;;;;;;;;;;;;;;;;4898731;28;20353;-85
2022/06/16 05:08:59;;;;;;;;;;;;;;;;;;4901645;29;19950;-85
2022/06/16 05:11:25;;;;;;;;;;;;;;;;;;4899064;29;19930;-85
2022/06/16 05:13:51;;;;;;;;;;;;;;;;;;4896933;29;19931;-84
2022/06/16 05:16:17;;;;;;;;;;;;;;;;;;4902812;29;19973;-85
2022/06/16 05:18:43;;;;;;;;;;;;;;;;;;4899340;29;19933;-83
2022/06/16 05:21:09;;;;;;;;;;;;;;;;;;4914058;29;19977;-83
2022/06/16 05:23:35;;;;;;;;;;;;;;;;;;4897226;29;19926;-84
2022/06/16 05:26:01;;;;;;;;;;;;;;;;;;4919211;29;19922;-83
2022/06/16 05:28:31;;;;;;;;;;;;;;;;;;4922074;29;19931;-83
2022/06/16 05:30:57;;;;;;;;;;;;;;;;;;4923968;28;19923;-83
2022/06/16 05:33:22;;;;;;;;;;;;;;;;;;4899348;29;20673;-83
2022/06/16 05:35:48;;;;;;;;;;;;;;;;;;4916141;28;19937;-83
2022/06/16 05:38:14;;;;;;;;;;;;;;;;;;4919850;29;20009;-84
2022/06/16 05:40:40;;;;;;;;;;;;;;;;;;4909061;28;19933;-84
2022/06/16 05:43:06;;;;;;;;;;;;;;;;;;4912129;29;20325;-84
2022/06/16 05:45:32;;;;;;;;;;;;;;;;;;4904364;28;19950;-84
2022/06/16 05:47:58;;;;;;;;;;;;;;;;;;4926400;28;20350;-85
2022/06/16 05:50:25;;;;;;;;;;;;;;;;;;4920892;29;19931;-84
2022/06/16 05:52:51;;;;;;;;;;;;;;;;;;4898700;29;19961;-85
2022/06/16 05:55:18;;;;;;;;;;;;;;;;;;4913354;29;19927;-85
2022/06/16 05:57:44;;;;;;;;;;;;;;;;;;4911431;29;19973;-84
2022/06/16 06:00:10;;;;;;;;;;;;;;;;;;4917319;29;19923;-85
2022/06/16 06:02:36;;;;;;;;;;;;;;;;;;4908484;29;19933;-85
2022/06/16 06:05:02;;;;;;;;;;;;;;;;;;4922224;28;19930;-85
2022/06/16 06:16:25;;;;;;;;;;;;;;;;;;4912493;29;19927;-84
2022/06/16 06:18:28;;;;;;;;;;;;;;;;;;4911938;29;19989;-84
2022/06/16 06:20:54;;;;;;;;;;;;;;;;;;4899944;29;19970;-85
2022/06/16 06:23:20;;;;;;;;;;;;;;;;;;4906998;29;19927;-85
2022/06/16 06:25:46;;;;;;;;;;;;;;;;;;4917700;29;20013;-84
2022/06/16 06:28:12;;;;;;;;;;;;;;;;;;4921459;29;19933;-84
2022/06/16 06:30:38;;;;;;;;;;;;;;;;;;4904183;29;20037;-85
2022/06/16 06:33:04;;;;;;;;;;;;;;;;;;4907459;29;19934;-85
2022/06/16 06:35:30;;;;;;;;;;;;;;;;;;4916429;29;19937;-85
2022/06/16 06:37:57;;;;;;;;;;;;;;;;;;4921960;29;19923;-85
2022/06/16 06:40:23;;;;;;;;;;;;;;;;;;4921781;29;19926;-85
2022/06/16 06:42:49;;;;;;;;;;;;;;;;;;4924856;29;20056;-85
2022/06/16 06:45:15;;;;;;;;;;;;;;;;;;4917955;29;20029;-85
2022/06/16 06:47:41;;;;;;;;;;;;;;;;;;4915070;29;19979;-85
2022/06/16 06:50:07;;;;;;;;;;;;;;;;;;4906632;29;19930;-85
2022/06/16 06:52:33;;;;;;;;;;;;;;;;;;4902014;29;19934;-85
2022/06/16 06:54:59;;;;;;;;;;;;;;;;;;4917397;29;20009;-85
2022/06/16 06:57:25;;;;;;;;;;;;;;;;;;4937169;28;19997;-85
2022/06/16 06:59:51;;;;;;;;;;;;;;;;;;4919259;28;19934;-85
2022/06/16 07:02:17;;;;;;;;;;;;;;;;;;4922842;29;19931;-86
2022/06/16 07:04:43;;;;;;;;;;;;;;;;;;4915822;29;20030;-85
2022/06/16 07:07:09;;;;;;;;;;;;;;;;;;4907382;29;19970;-85
2022/06/16 07:09:34;;;;;;;;;;;;;;;;;;4916766;29;19923;-85
2022/06/16 07:12:00;;;;;;;;;;;;;;;;;;4917979;29;20396;-85
2022/06/16 07:14:29;;;;;;;;;;;;;;;;;;4923003;29;20883;-86
2022/06/16 07:16:55;;;;;;;;;;;;;;;;;;4922859;29;19923;-86
2022/06/16 07:19:21;;;;;;;;;;;;;;;;;;4915801;29;19927;-85
2022/06/16 07:21:47;;;;;;;;;;;;;;;;;;4916200;28;19973;-85
2022/06/16 07:24:13;;;;;;;;;;;;;;;;;;4906979;29;19927;-85
2022/06/16 07:26:39;;;;;;;;;;;;;;;;;;4916383;29;19938;-85
2022/06/16 07:29:05;;;;;;;;;;;;;;;;;;4925028;29;19922;-85
2022/06/16 07:31:31;;;;;;;;;;;;;;;;;;4914028;29;19972;-86
2022/06/16 07:33:56;;;;;;;;;;;;;;;;;;4913744;29;20289;-86
2022/06/16 07:36:22;;;;;;;;;;;;;;;;;;4921514;29;19966;-86
2022/06/16 07:38:49;;;;;;;;;;;;;;;;;;4902585;29;19938;-85
2022/06/16 07:41:31;;;;;;;;;;;;;;;;;;4919977;29;19927;-86
2022/06/16 07:43:57;;;;;;;;;;;;;;;;;;4915179;29;19934;-85
2022/06/16 07:46:23;;;;;;;;;;;;;;;;;;4919575;29;19927;-85
2022/06/16 07:48:51;;;;;;;;;;;;;;;;;;4901645;29;19930;-86
2022/06/16 07:51:17;;;;;;;;;;;;;;;;;;4919886;29;20043;-86
2022/06/16 07:53:43;;;;;;;;;;;;;;;;;;4917098;29;20021;-87
2022/06/16 07:56:09;;;;;;;;;;;;;;;;;;4923835;29;19930;-86
2022/06/16 07:58:34;;;;;;;;;;;;;;;;;;4918885;29;20457;-87
2022/06/16 08:01:00;;;;;;;;;;;;;;;;;;4923029;29;20282;-87
2022/06/16 08:03:28;;;;;;;;;;;;;;;;;;4919205;29;20289;-87
2022/06/16 08:05:54;;;;;;;;;;;;;;;;;;4919732;28;19922;-87
2022/06/16 08:08:22;;;;;;;;;;;;;;;;;;4921246;29;19923;-87
2022/06/16 08:10:48;;;;;;;;;;;;;;;;;;4915399;29;19931;-88
2022/06/16 08:13:13;;;;;;;;;;;;;;;;;;4932305;28;19938;-87
2022/06/16 08:15:42;;;;;;;;;;;;;;;;;;4919501;29;19922;-87
2022/06/16 08:18:10;;;;;;;;;;;;;;;;;;4922505;29;20062;-88
2022/06/16 08:20:36;;;;;;;;;;;;;;;;;;4913041;29;19927;-87
2022/06/16 08:23:02;;;;;;;;;;;;;;;;;;4902095;29;19981;-87
2022/06/16 08:25:28;;;;;;;;;;;;;;;;;;4918983;29;19978;-88
2022/06/16 08:27:55;;;;;;;;;;;;;;;;;;4917525;29;19981;-87
2022/06/16 08:30:21;;;;;;;;;;;;;;;;;;4923351;29;20576;-87
2022/06/16 08:32:46;;;;;;;;;;;;;;;;;;4911627;29;20013;-87
2022/06/16 08:35:12;;;;;;;;;;;;;;;;;;4924902;28;19930;-87
2022/06/16 08:37:38;;;;;;;;;;;;;;;;;;4912492;29;21509;-87
2022/06/16 08:40:04;;;;;;;;;;;;;;;;;;4916971;29;19923;-87
2022/06/16 08:42:30;;;;;;;;;;;;;;;;;;4909883;29;20018;-87
2022/06/16 08:44:57;;;;;;;;;;;;;;;;;;4919446;28;19981;-87
2022/06/16 08:47:23;;;;;;;;;;;;;;;;;;4902414;29;20355;-87
2022/06/16 08:49:49;;;;;;;;;;;;;;;;;;4915511;29;20057;-87
2022/06/16 08:52:15;;;;;;;;;;;;;;;;;;4905193;29;20286;-87
2022/06/16 08:54:42;;;;;;;;;;;;;;;;;;4916324;29;20302;-87
2022/06/16 08:57:08;;;;;;;;;;;;;;;;;;4917833;29;19934;-87
2022/06/16 08:59:34;;;;;;;;;;;;;;;;;;4903366;29;19931;-87
2022/06/16 09:02:00;;;;;;;;;;;;;;;;;;4920987;29;19937;-87
2022/06/16 09:04:26;;;;;;;;;;;;;;;;;;4919999;29;20005;-87
2022/06/16 09:06:52;;;;;;;;;;;;;;;;;;4915712;29;19930;-87
2022/06/16 09:10:14;;;;;;;;;;;;;;;;;;4918970;29;19927;-87
2022/06/16 09:12:03;;;;;;;;;;;;;;;;;;4922099;29;19967;-87
2022/06/16 09:17:14;;;;;;;;;;;;;;;;;;4915990;29;19977;-87
2022/06/16 09:19:40;;;;;;;;;;;;;;;;;;4911764;29;19970;-87
2022/06/16 09:22:06;;;;;;;;;;;;;;;;;;4918159;29;20318;-87
2022/06/16 09:24:32;;;;;;;;;;;;;;;;;;4915311;28;20267;-88
2022/06/16 09:26:58;;;;;;;;;;;;;;;;;;4901869;29;19933;-88
2022/06/16 09:29:24;;;;;;;;;;;;;;;;;;4920106;29;19974;-88
2022/06/16 09:31:50;;;;;;;;;;;;;;;;;;4917126;29;20446;-88
2022/06/16 09:34:16;;;;;;;;;;;;;;;;;;4919694;29;20390;-88
2022/06/16 09:36:42;;;;;;;;;;;;;;;;;;4911507;29;19946;-87
2022/06/16 09:39:08;;;;;;;;;;;;;;;;;;4902055;29;19926;-87
2022/06/16 09:44:18;;;;;;;;;;;;;;;;;;4921978;29;20422;-88
2022/06/16 09:46:44;;;;;;;;;;;;;;;;;;4911434;29;19927;-88
2022/06/16 09:49:10;;;;;;;;;;;;;;;;;;4919462;29;19939;-88
2022/06/16 09:51:37;;;;;;;;;;;;;;;;;;4899707;29;19937;-87
2022/06/16 09:54:03;;;;;;;;;;;;;;;;;;4915647;29;19962;-88
2022/06/16 09:56:29;;;;;;;;;;;;;;;;;;4916310;28;19927;-88
2022/06/16 09:58:55;;;;;;;;;;;;;;;;;;4933392;28;20274;-88
2022/06/16 10:01:21;;;;;;;;;;;;;;;;;;4919772;28;20008;-88
2022/06/16 10:03:47;;;;;;;;;;;;;;;;;;4900210;29;19974;-88
2022/06/16 10:06:14;;;;;;;;;;;;;;;;;;4917683;29;19926;-88
2022/06/16 10:08:40;;;;;;;;;;;;;;;;;;4904273;29;19930;-88
2022/06/16 10:11:06;;;;;;;;;;;;;;;;;;4906144;29;20289;-88
2022/06/16 10:13:32;;;;;;;;;;;;;;;;;;4900101;29;20326;-88
2022/06/16 10:15:58;;;;;;;;;;;;;;;;;;4910125;29;19922;-88
2022/06/16 10:18:24;;;;;;;;;;;;;;;;;;4919346;29;19923;-88
2022/06/16 10:20:50;;;;;;;;;;;;;;;;;;4902853;29;20398;-88
2022/06/16 10:23:16;;;;;;;;;;;;;;;;;;4921393;29;19933;-88
2022/06/16 10:25:42;;;;;;;;;;;;;;;;;;4921951;28;20017;-88
2022/06/16 10:28:08;;;;;;;;;;;;;;;;;;4904058;29;19950;-88
2022/06/16 10:30:34;;;;;;;;;;;;;;;;;;4904397;29;19922;-88
2022/06/16 10:33:00;;;;;;;;;;;;;;;;;;4907785;29;20556;-88
2022/06/16 10:35:26;;;;;;;;;;;;;;;;;;4921899;28;20413;-88
2022/06/16 10:37:52;;;;;;;;;;;;;;;;;;4918647;29;19927;-88
2022/06/16 10:40:18;;;;;;;;;;;;;;;;;;4920470;28;19922;-88
2022/06/16 10:42:44;;;;;;;;;;;;;;;;;;4919977;29;19922;-88
2022/06/16 10:45:10;;;;;;;;;;;;;;;;;;4923568;29;20015;-88
2022/06/16 10:47:36;;;;;;;;;;;;;;;;;;4901413;29;20394;-88
2022/06/16 10:50:02;;;;;;;;;;;;;;;;;;4918351;29;19969;-88
2022/06/16 10:52:28;;;;;;;;;;;;;;;;;;4920439;29;19934;-89
2022/06/16 10:54:54;;;;;;;;;;;;;;;;;;4915445;29;19938;-88
2022/06/16 10:57:20;;;;;;;;;;;;;;;;;;4925729;29;19926;-88
2022/06/16 10:59:46;;;;;;;;;;;;;;;;;;4919030;28;19927;-88
2022/06/16 11:02:12;;;;;;;;;;;;;;;;;;4918535;29;19927;-88
2022/06/16 11:04:38;;;;;;;;;;;;;;;;;;4911484;29;19927;-88
2022/06/16 11:07:04;;;;;;;;;;;;;;;;;;4912619;29;19926;-89
2022/06/16 11:09:30;;;;;;;;;;;;;;;;;;4904081;29;19934;-88
2022/06/16 11:11:57;;;;;;;;;;;;;;;;;;4913213;29;19923;-89
2022/06/16 11:14:23;;;;;;;;;;;;;;;;;;4905994;29;19934;-88
2022/06/16 11:16:49;;;;;;;;;;;;;;;;;;4920100;29;21895;-88
2022/06/16 11:19:15;;;;;;;;;;;;;;;;;;4921500;29;20001;-88
2022/06/16 11:21:41;;;;;;;;;;;;;;;;;;4914226;28;19981;-89
2022/06/16 11:24:08;;;;;;;;;;;;;;;;;;4917623;29;19930;-89
2022/06/16 11:26:34;;;;;;;;;;;;;;;;;;4919635;28;19976;-89
2022/06/16 11:29:01;;;;;;;;;;;;;;;;;;4919508;29;19997;-89
2022/06/16 11:31:27;;;;;;;;;;;;;;;;;;4921148;29;20021;-89
2022/06/16 11:34:08;;;;;;;;;;;;;;;;;;4924915;29;20078;-89
2022/06/16 11:36:34;;;;;;;;;;;;;;;;;;4902500;29;19927;-89
2022/06/16 11:39:00;;;;;;;;;;;;;;;;;;4907311;29;19923;-89
2022/06/16 11:41:25;;;;;;;;;;;;;;;;;;4904685;29;19922;-89
2022/06/16 11:43:51;;;;;;;;;;;;;;;;;;4920392;29;19930;-88
2022/06/16 11:46:17;;;;;;;;;;;;;;;;;;4902627;29;19927;-89
2022/06/16 11:48:43;;;;;;;;;;;;;;;;;;4916195;29;19933;-88
2022/06/16 11:51:09;;;;;;;;;;;;;;;;;;4920878;29;19982;-89
2022/06/16 11:53:35;;;;;;;;;;;;;;;;;;4903833;29;20737;-89
2022/06/16 11:56:01;;;;;;;;;;;;;;;;;;4916523;28;20017;-89
2022/06/16 11:58:27;;;;;;;;;;;;;;;;;;4901596;29;19922;-89
2022/06/16 12:00:53;;;;;;;;;;;;;;;;;;4904938;29;19923;-89
2022/06/16 12:03:19;;;;;;;;;;;;;;;;;;4903560;29;19930;-89
2022/06/16 12:05:45;;;;;;;;;;;;;;;;;;4914823;29;19938;-89
2022/06/16 12:08:11;;;;;;;;;;;;;;;;;;4920349;29;19929;-89
2022/06/16 12:10:37;;;;;;;;;;;;;;;;;;4918880;28;19951;-89
2022/06/16 12:13:03;;;;;;;;;;;;;;;;;;4902113;29;19958;-89
2022/06/16 12:15:29;;;;;;;;;;;;;;;;;;4896280;29;19927;-89
2022/06/16 12:17:55;;;;;;;;;;;;;;;;;;4905480;29;19931;-89
2022/06/16 12:20:21;;;;;;;;;;;;;;;;;;4916619;28;20370;-89
2022/06/16 12:22:47;;;;;;;;;;;;;;;;;;4914653;29;20404;-89
2022/06/16 12:25:14;;;;;;;;;;;;;;;;;;4924041;29;20401;-89
2022/06/16 12:27:40;;;;;;;;;;;;;;;;;;4893819;29;19931;-89
2022/06/16 12:30:06;;;;;;;;;;;;;;;;;;4902142;29;19923;-89
2022/06/16 12:32:32;;;;;;;;;;;;;;;;;;4912920;29;19937;-89
2022/06/16 12:34:58;;;;;;;;;;;;;;;;;;4910258;29;19932;-89
2022/06/16 12:37:24;;;;;;;;;;;;;;;;;;4908013;29;19923;-89
2022/06/16 12:39:50;;;;;;;;;;;;;;;;;;4919362;29;19930;-88
2022/06/16 12:42:16;;;;;;;;;;;;;;;;;;4917972;29;20030;-89
2022/06/16 12:44:42;;;;;;;;;;;;;;;;;;4900731;28;19930;-89
2022/06/16 12:47:09;;;;;;;;;;;;;;;;;;4920511;29;19975;-89
2022/06/16 12:49:35;;;;;;;;;;;;;;;;;;4916150;29;19922;-89
2022/06/16 12:52:01;;;;;;;;;;;;;;;;;;4913354;29;19938;-89
2022/06/16 12:54:27;;;;;;;;;;;;;;;;;;4916463;29;20045;-89
2022/06/16 12:56:56;;;;;;;;;;;;;;;;;;4914935;29;19969;-89
2022/06/16 12:59:22;;;;;;;;;;;;;;;;;;4921183;29;19969;-89
2022/06/16 13:01:48;;;;;;;;;;;;;;;;;;4901731;29;19930;-88
2022/06/16 13:04:14;;;;;;;;;;;;;;;;;;4919537;29;20345;-89
2022/06/16 13:06:40;;;;;;;;;;;;;;;;;;4916599;29;20279;-89
2022/06/16 13:09:06;;;;;;;;;;;;;;;;;;4921448;29;20377;-88
2022/06/16 13:11:32;;;;;;;;;;;;;;;;;;4913992;28;19934;-89
2022/06/16 13:13:58;;;;;;;;;;;;;;;;;;4921942;29;20362;-88
2022/06/16 13:16:25;;;;;;;;;;;;;;;;;;4936661;28;19930;-89
2022/06/16 13:18:51;;;;;;;;;;;;;;;;;;4912850;29;20021;-89
2022/06/16 13:21:17;;;;;;;;;;;;;;;;;;4903174;29;20030;-89
2022/06/16 13:23:43;;;;;;;;;;;;;;;;;;4918988;29;19938;-89
2022/06/16 13:26:09;;;;;;;;;;;;;;;;;;4909373;29;19923;-89
2022/06/16 13:28:35;;;;;;;;;;;;;;;;;;4915720;29;19927;-89
2022/06/16 13:31:01;;;;;;;;;;;;;;;;;;4903813;29;19933;-89
2022/06/16 13:33:27;;;;;;;;;;;;;;;;;;4900848;29;19927;-89
2022/06/16 13:35:53;;;;;;;;;;;;;;;;;;4899881;29;19927;-88
2022/06/16 13:38:19;;;;;;;;;;;;;;;;;;4915809;29;20674;-89
2022/06/16 13:40:45;;;;;;;;;;;;;;;;;;4928594;28;19976;-89
2022/06/16 13:43:11;;;;;;;;;;;;;;;;;;4923685;29;19922;-88
2022/06/16 13:45:37;;;;;;;;;;;;;;;;;;4912292;29;19934;-89
2022/06/16 13:48:03;;;;;;;;;;;;;;;;;;4918271;29;19934;-89
2022/06/16 13:50:28;;;;;;;;;;;;;;;;;;4900699;28;19985;-90
2022/06/16 13:52:54;;;;;;;;;;;;;;;;;;4911721;29;19930;-89
2022/06/16 13:55:20;;;;;;;;;;;;;;;;;;4921017;29;20325;-89
2022/06/16 13:57:46;;;;;;;;;;;;;;;;;;4896578;29;20499;-88
2022/06/16 14:00:12;;;;;;;;;;;;;;;;;;4917896;29;20422;-89
2022/06/16 14:02:38;;;;;;;;;;;;;;;;;;4908314;29;20389;-89
2022/06/16 14:05:04;;;;;;;;;;;;;;;;;;4915821;29;19937;-88
2022/06/16 14:07:30;;;;;;;;;;;;;;;;;;4909753;29;19926;-88
2022/06/16 14:09:56;;;;;;;;;;;;;;;;;;4915134;29;19927;-89
2022/06/16 14:12:22;;;;;;;;;;;;;;;;;;4916574;29;19927;-88
2022/06/16 14:14:48;;;;;;;;;;;;;;;;;;4913709;28;21686;-88
2022/06/16 14:17:14;;;;;;;;;;;;;;;;;;4918099;29;20013;-89
2022/06/16 14:19:42;;;;;;;;;;;;;;;;;;4897175;29;20393;-89
2022/06/16 14:22:08;;;;;;;;;;;;;;;;;;4915661;29;20009;-89
2022/06/16 14:24:34;;;;;;;;;;;;;;;;;;4912108;29;19981;-89
2022/06/16 14:27:00;;;;;;;;;;;;;;;;;;4933418;28;20530;-89
2022/06/16 14:29:26;;;;;;;;;;;;;;;;;;4913275;29;20352;-89
2022/06/16 14:31:52;;;;;;;;;;;;;;;;;;4912960;29;19931;-88
2022/06/16 14:34:18;;;;;;;;;;;;;;;;;;4898791;29;20033;-88
2022/06/16 14:36:44;;;;;;;;;;;;;;;;;;4913793;29;20026;-89
2022/06/16 14:39:10;;;;;;;;;;;;;;;;;;4917904;29;20017;-88
2022/06/16 14:41:36;;;;;;;;;;;;;;;;;;4898231;29;20374;-89
2022/06/16 14:44:02;;;;;;;;;;;;;;;;;;4916424;29;19978;-89
2022/06/16 14:46:28;;;;;;;;;;;;;;;;;;4916967;29;19927;-89
2022/06/16 14:48:54;;;;;;;;;;;;;;;;;;4915623;29;19923;-89
2022/06/16 14:51:20;;;;;;;;;;;;;;;;;;4910508;29;19937;-84
2022/06/16 14:53:46;;;;;;;;;;;;;;;;;;4902532;28;19927;-84
2022/06/16 14:56:12;;;;;;;;;;;;;;;;;;4909104;29;19926;-84
2022/06/16 14:58:38;;;;;;;;;;;;;;;;;;4913575;29;19923;-84
2022/06/16 15:01:04;;;;;;;;;;;;;;;;;;4913739;29;20369;-84
2022/06/16 15:03:30;;;;;;;;;;;;;;;;;;4927137;28;20295;-84
2022/06/16 15:05:56;;;;;;;;;;;;;;;;;;4900882;29;19997;-84
2022/06/16 15:08:23;;;;;;;;;;;;;;;;;;4919445;29;20535;-84
2022/06/16 15:10:49;;;;;;;;;;;;;;;;;;4909621;28;20768;-83
2022/06/16 15:13:15;;;;;;;;;;;;;;;;;;4914230;29;19953;-83
2022/06/16 15:15:41;;;;;;;;;;;;;;;;;;4909218;29;20402;-83
2022/06/16 15:18:13;;;;;;;;;;;;;;;;;;4912114;29;19937;-83
2022/06/16 15:20:39;;;;;;;;;;;;;;;;;;4891813;29;20013;-83
2022/06/16 15:23:05;;;;;;;;;;;;;;;;;;4911040;29;19931;-83
2022/06/16 15:25:31;;;;;;;;;;;;;;;;;;4909100;29;19930;-83
2022/06/16 15:27:58;;;;;;;;;;;;;;;;;;4910843;29;19927;-84
2022/06/16 15:30:24;;;;;;;;;;;;;;;;;;4910145;29;20759;-83
2022/06/16 15:38:20;;;;;;;;;;;;;;;;;;4912638;29;20032;-84
2022/06/16 15:40:46;;;;;;;;;;;;;;;;;;4909356;28;19990;-83
2022/06/16 15:43:12;;;;;;;;;;;;;;;;;;4920683;29;19926;-84
2022/06/16 15:45:38;;;;;;;;;;;;;;;;;;4904784;28;21530;-83
2022/06/16 15:48:04;;;;;;;;;;;;;;;;;;4917382;29;19931;-84
2022/06/16 15:50:30;;;;;;;;;;;;;;;;;;4913058;29;19942;-83
2022/06/16 15:52:55;;;;;;;;;;;;;;;;;;4918140;29;19946;-83
2022/06/16 15:55:22;;;;;;;;;;;;;;;;;;4919109;29;19927;-83
2022/06/16 15:57:48;;;;;;;;;;;;;;;;;;4914440;29;19926;-84
2022/06/16 16:00:15;;;;;;;;;;;;;;;;;;4903017;29;19923;-83
2022/06/16 16:02:42;;;;;;;;;;;;;;;;;;4922510;29;19927;-83
2022/06/16 16:05:08;;;;;;;;;;;;;;;;;;4919343;29;20021;-83
2022/06/16 16:07:34;;;;;;;;;;;;;;;;;;4901621;29;20013;-83
2022/06/16 16:10:00;;;;;;;;;;;;;;;;;;4911065;29;19927;-83
2022/06/16 16:12:26;;;;;;;;;;;;;;;;;;4920390;29;19957;-83
2022/06/16 16:14:52;;;;;;;;;;;;;;;;;;4911008;29;19931;-83
2022/06/16 16:17:18;;;;;;;;;;;;;;;;;;4917644;29;19931;-83
2022/06/16 16:19:44;;;;;;;;;;;;;;;;;;4912619;29;19950;-83
2022/06/16 16:22:10;;;;;;;;;;;;;;;;;;4922039;29;19931;-83
2022/06/16 16:24:36;;;;;;;;;;;;;;;;;;4915454;29;19942;-83
2022/06/16 16:27:02;;;;;;;;;;;;;;;;;;4919699;29;19938;-82
2022/06/16 16:29:28;;;;;;;;;;;;;;;;;;4919896;29;19965;-82
2022/06/16 16:31:54;;;;;;;;;;;;;;;;;;4928249;29;20350;-82
2022/06/16 16:34:20;;;;;;;;;;;;;;;;;;4907841;29;19931;-84
2022/06/16 16:36:46;;;;;;;;;;;;;;;;;;4915345;29;19922;-84
2022/06/16 16:39:12;;;;;;;;;;;;;;;;;;4904162;29;19974;-84
2022/06/16 16:44:23;;;;;;;;;;;;;;;;;;4914524;29;20117;-84
2022/06/16 16:46:49;;;;;;;;;;;;;;;;;;4911814;29;20005;-84
2022/06/16 16:49:15;;;;;;;;;;;;;;;;;;4900680;29;19966;-84
2022/06/16 16:51:41;;;;;;;;;;;;;;;;;;4898605;29;19930;-84
2022/06/16 16:54:07;;;;;;;;;;;;;;;;;;4914230;29;19927;-84
2022/06/16 16:56:33;;;;;;;;;;;;;;;;;;4898955;29;20018;-84
2022/06/16 16:58:59;;;;;;;;;;;;;;;;;;4917803;29;19927;-85
2022/06/16 17:01:25;;;;;;;;;;;;;;;;;;4907454;29;20025;-85
2022/06/16 17:03:52;;;;;;;;;;;;;;;;;;4900567;29;20342;-85
2022/06/16 17:06:18;;;;;;;;;;;;;;;;;;4916050;29;20017;-85
2022/06/16 17:08:44;;;;;;;;;;;;;;;;;;4913949;29;20017;-84
2022/06/16 17:13:56;;;;;;;;;;;;;;;;;;4918634;29;20053;-85
2022/06/16 17:16:22;;;;;;;;;;;;;;;;;;4916698;29;19922;-85